Time;durP1;ratioP1;P1;durP2;ratioP2;P2;SDS_P1;SDS_P2;PMS_P1;PMS_P2;Temp;Humidity;BMP_temperature;BMP_pressure;BME280_temperature;BME280_humidity;BME280_pressure;Samples;Min_cycle;Max_cycle;Signal;HPM_P1;HPM_P2
2021/12/20 00:00:53;;;;;;;15.67;12.37;;;7.80;73.80;;;-142.21;100.00;112049.66;4973503;28;20468;-75
2021/12/20 00:03:22;;;;;;;14.50;11.03;;;7.80;73.90;;;-142.21;100.00;112049.66;5012919;28;20462;-79
2021/12/20 00:05:49;;;;;;;13.87;11.03;;;7.90;73.70;;;-142.21;100.00;112049.66;5013761;28;20533;-79
2021/12/20 00:08:16;;;;;;;13.53;11.20;;;7.90;73.20;;;-142.21;100.00;112049.66;5012961;28;21013;-80
2021/12/20 00:10:44;;;;;;;14.13;11.13;;;8.00;73.20;;;-142.21;100.00;112049.66;5013108;28;20501;-79
2021/12/20 00:13:16;;;;;;;13.73;10.97;;;7.90;73.30;;;-142.21;100.00;112049.66;5006711;28;20455;-80
2021/12/20 00:15:44;;;;;;;14.00;10.97;;;7.80;73.80;;;-142.21;100.00;112049.66;4994081;28;20523;-79
2021/12/20 00:18:12;;;;;;;13.30;11.07;;;7.90;73.80;;;-142.21;100.00;112049.66;5007737;28;20850;-78
2021/12/20 00:20:42;;;;;;;14.60;11.40;;;7.90;73.50;;;-142.21;100.00;112049.66;5013087;28;21004;-77
2021/12/20 00:23:09;;;;;;;13.67;11.10;;;7.90;73.50;;;-142.21;100.00;112049.66;5011991;28;21022;-80
2021/12/20 00:25:37;;;;;;;12.87;9.87;;;7.80;73.20;;;-142.21;100.00;112049.66;5006145;28;20513;-76
2021/12/20 00:28:06;;;;;;;14.50;10.97;;;7.70;73.60;;;-142.21;100.00;112049.66;4993880;28;20451;-77
2021/12/20 00:30:34;;;;;;;13.90;11.63;;;7.70;74.00;;;-142.21;100.00;112049.66;5004899;28;20458;-76
2021/12/20 00:33:01;;;;;;;12.90;11.17;;;7.70;73.80;;;-142.21;100.00;112049.66;4999067;28;20541;-80
2021/12/20 00:35:28;;;;;;;14.07;10.43;;;7.80;73.60;;;-142.21;100.00;112049.66;5012996;28;20454;-80
2021/12/20 00:40:41;;;;;;;12.93;9.90;;;7.80;73.50;;;-142.21;100.00;112049.66;5012642;28;20461;-80
2021/12/20 00:43:08;;;;;;;12.97;10.60;;;7.90;73.30;;;-142.21;100.00;112049.66;5012799;28;20591;-80
2021/12/20 00:45:38;;;;;;;12.17;10.23;;;7.90;73.00;;;-142.21;100.00;112049.66;5012083;28;20473;-80
2021/12/20 00:48:07;;;;;;;12.50;11.03;;;7.90;73.20;;;-142.21;100.00;112049.66;5013133;28;20532;-79
2021/12/20 00:50:35;;;;;;;13.40;10.13;;;7.80;73.20;;;-142.21;100.00;112049.66;5013025;28;20458;-80
2021/12/20 00:53:03;;;;;;;13.07;10.23;;;7.80;73.50;;;-142.21;100.00;112049.66;5012658;28;20446;-80
2021/12/20 00:55:31;;;;;;;13.43;10.23;;;7.90;73.40;;;-142.21;100.00;112049.66;5012932;28;20549;-80
2021/12/20 00:58:01;;;;;;;12.80;10.20;;;7.90;73.20;;;-142.21;100.00;112049.66;5012427;28;20486;-80
2021/12/20 01:00:30;;;;;;;14.77;11.63;;;8.00;73.20;;;-142.21;100.00;112049.66;5014653;28;20227;-78
2021/12/20 01:02:59;;;;;;;12.40;10.90;;;8.00;73.10;;;-142.21;100.00;112049.66;5017499;28;21052;-79
2021/12/20 01:05:30;;;;;;;14.20;11.30;;;7.90;73.10;;;-142.21;100.00;112049.66;5014453;28;20442;-80
2021/12/20 01:08:00;;;;;;;13.87;11.20;;;7.90;73.40;;;-142.21;100.00;112049.66;5011742;28;20958;-80
2021/12/20 01:10:30;;;;;;;13.93;11.23;;;7.90;73.30;;;-142.21;100.00;112049.66;5012567;28;20489;-79
2021/12/20 01:13:01;;;;;;;15.33;12.17;;;7.90;73.30;;;-142.21;100.00;112049.66;5031424;28;20689;-80
2021/12/20 01:15:32;;;;;;;14.60;11.40;;;7.90;73.40;;;-142.21;100.00;112049.66;5032469;28;20488;-79
2021/12/20 01:17:59;;;;;;;15.00;11.40;;;7.90;73.30;;;-142.21;100.00;112049.66;5031883;28;20442;-79
2021/12/20 01:20:26;;;;;;;17.43;13.27;;;7.90;73.20;;;-142.21;100.00;112049.66;5032218;28;20506;-80
2021/12/20 01:22:54;;;;;;;16.30;12.73;;;8.00;73.30;;;-142.21;100.00;112049.66;5032257;28;20525;-80
2021/12/20 01:25:22;;;;;;;16.80;12.90;;;8.00;73.50;;;-142.21;100.00;112049.66;5031593;28;20933;-80
2021/12/20 01:27:52;;;;;;;15.37;12.40;;;7.90;73.30;;;-142.21;100.00;112049.66;5024289;28;20457;-80
2021/12/20 01:30:23;;;;;;;16.67;12.60;;;7.90;73.40;;;-142.21;100.00;112049.66;5031377;28;20949;-80
2021/12/20 01:32:51;;;;;;;17.43;13.17;;;8.00;73.30;;;-142.21;100.00;112049.66;5032380;28;20492;-81
2021/12/20 01:35:22;;;;;;;15.20;12.27;;;7.90;73.20;;;-142.21;100.00;112049.66;5029829;28;20481;-80
2021/12/20 01:37:52;;;;;;;16.67;13.03;;;7.90;73.50;;;-142.21;100.00;112049.66;5012692;28;20453;-80
2021/12/20 01:40:21;;;;;;;15.95;13.13;;;7.90;73.50;;;-142.21;100.00;112049.66;5012032;28;20477;-79
2021/12/20 01:42:55;;;;;;;15.77;13.07;;;7.90;73.70;;;-142.21;100.00;112049.66;5004068;28;20238;-80
2021/12/20 01:45:24;;;;;;;17.10;13.37;;;7.90;73.80;;;-142.21;100.00;112049.66;5011855;28;20557;-80
2021/12/20 01:48:01;;;;;;;17.63;12.57;;;7.80;73.80;;;-142.21;100.00;112049.66;5003612;28;20455;-80
2021/12/20 01:50:41;;;;;;;16.87;13.10;;;7.80;73.80;;;-142.21;100.00;112049.66;4991819;28;20443;-80
2021/12/20 01:53:09;;;;;;;19.40;13.60;;;7.80;73.90;;;-142.21;100.00;112049.66;5011805;28;20461;-80
2021/12/20 01:55:36;;;;;;;16.10;13.30;;;7.80;73.70;;;-142.21;100.00;112049.66;4984347;28;20501;-79
2021/12/20 01:58:06;;;;;;;15.85;12.90;;;7.80;73.40;;;-142.21;100.00;112049.66;5005785;28;20537;-79
2021/12/20 02:00:34;;;;;;;18.67;13.27;;;7.80;73.80;;;-142.21;100.00;112049.66;5011823;28;20294;-79
2021/12/20 02:03:03;;;;;;;15.47;13.63;;;7.80;73.90;;;-142.21;100.00;112049.66;4992156;28;21003;-80
2021/12/20 02:05:48;;;;;;;16.97;12.93;;;7.80;74.70;;;-142.21;100.00;112049.66;4998720;28;20508;-78
2021/12/20 02:08:21;;;;;;;15.33;13.13;;;7.80;74.10;;;-142.21;100.00;112049.66;5012024;28;20450;-80
2021/12/20 02:10:50;;;;;;;18.10;14.03;;;7.70;73.80;;;-142.21;100.00;112049.66;5011442;28;20474;-80
2021/12/20 02:13:19;;;;;;;17.10;13.63;;;7.70;74.40;;;-142.21;100.00;112049.66;5012159;28;20468;-80
2021/12/20 02:15:46;;;;;;;18.33;13.98;;;7.70;74.20;;;-142.21;100.00;112049.66;5011696;28;20426;-80
2021/12/20 02:18:14;;;;;;;19.67;15.23;;;7.70;74.20;;;-142.21;100.00;112049.66;5009334;28;20287;-79
2021/12/20 02:20:45;;;;;;;20.17;14.03;;;7.60;74.60;;;-142.21;100.00;112049.66;4995692;28;20628;-79
2021/12/20 02:23:12;;;;;;;20.30;15.10;;;7.70;74.50;;;-142.21;100.00;112049.66;4995986;28;20573;-79
2021/12/20 02:25:40;;;;;;;18.77;14.50;;;7.50;74.80;;;-142.21;100.00;112049.66;4996029;28;20451;-79
2021/12/20 02:28:10;;;;;;;19.37;15.57;;;7.50;75.40;;;-142.21;100.00;112049.66;4995428;28;20457;-79
2021/12/20 02:30:48;;;;;;;21.25;15.52;;;7.50;75.40;;;-142.21;100.00;112049.66;5011016;28;20504;-79
2021/12/20 02:38:51;;;;;;;20.60;14.57;;;7.60;74.90;;;-142.21;100.00;112049.66;5015356;28;20546;-79
2021/12/20 02:41:23;;;;;;;19.83;14.43;;;7.70;74.80;;;-142.21;100.00;112049.66;5015329;28;20849;-79
2021/12/20 02:43:55;;;;;;;21.07;15.87;;;7.70;74.70;;;-142.21;100.00;112049.66;5014948;28;20513;-79
2021/12/20 02:46:44;;;;;;;21.17;15.33;;;7.60;74.90;;;-142.21;100.00;112049.66;5014855;28;20485;-79
2021/12/20 02:49:15;;;;;;;21.77;16.15;;;7.50;75.40;;;-142.21;100.00;112049.66;5014145;28;20546;-80
2021/12/20 02:51:45;;;;;;;23.93;16.43;;;7.60;75.40;;;-142.21;100.00;112049.66;5015254;28;20281;-80
2021/12/20 02:54:15;;;;;;;23.37;16.37;;;7.60;75.30;;;-142.21;100.00;112049.66;5014481;28;20497;-79
2021/12/20 02:56:43;;;;;;;22.60;16.17;;;7.50;75.40;;;-142.21;100.00;112049.66;5015000;28;20486;-79
2021/12/20 02:59:12;;;;;;;22.87;16.67;;;7.50;74.50;;;-142.21;100.00;112049.66;5014125;28;20449;-80
2021/12/20 03:01:44;;;;;;;24.17;16.53;;;7.60;74.90;;;-142.21;100.00;112049.66;5014874;28;20533;-80
2021/12/20 03:04:12;;;;;;;23.47;16.43;;;7.40;75.40;;;-142.21;100.00;112049.66;5014197;28;20462;-80
2021/12/20 03:06:46;;;;;;;25.03;17.07;;;7.50;75.40;;;-142.21;100.00;112049.66;5014852;28;20553;-79
2021/12/20 03:09:18;;;;;;;23.17;16.70;;;7.40;75.40;;;-142.21;100.00;112049.66;5013978;28;20500;-80
2021/12/20 03:11:48;;;;;;;23.30;17.13;;;7.50;75.70;;;-142.21;100.00;112049.66;5014994;28;20466;-80
2021/12/20 03:14:20;;;;;;;24.47;17.37;;;7.50;75.50;;;-142.21;100.00;112049.66;5014027;28;20455;-80
2021/12/20 03:16:48;;;;;;;26.90;17.77;;;7.50;75.50;;;-142.21;100.00;112049.66;5014147;28;20500;-79
2021/12/20 03:19:15;;;;;;;21.67;15.77;;;7.40;75.70;;;-142.21;100.00;112049.66;5014467;28;20537;-79
2021/12/20 03:21:44;;;;;;;22.42;16.45;;;7.50;75.80;;;-142.21;100.00;112049.66;5014686;28;20460;-79
2021/12/20 03:24:11;;;;;;;24.03;16.67;;;7.60;75.60;;;-142.21;100.00;112049.66;5014679;28;20294;-79
2021/12/20 03:26:38;;;;;;;21.30;15.73;;;7.60;75.10;;;-142.21;100.00;112049.66;5013829;28;20452;-79
2021/12/20 03:29:07;;;;;;;25.50;17.80;;;7.70;75.80;;;-142.21;100.00;112049.66;5013146;28;20505;-78
2021/12/20 03:31:34;;;;;;;24.23;16.70;;;7.80;75.00;;;-142.21;100.00;112049.66;5013604;28;20243;-79
2021/12/20 03:34:02;;;;;;;23.30;16.42;;;7.70;74.80;;;-142.21;100.00;112049.66;5014327;28;20534;-80
2021/12/20 03:36:32;;;;;;;25.38;17.52;;;7.60;75.20;;;-142.21;100.00;112049.66;5013891;28;20678;-79
2021/12/20 03:39:01;;;;;;;23.90;16.77;;;7.60;75.40;;;-142.21;100.00;112049.66;5014332;28;20597;-80
2021/12/20 03:41:28;;;;;;;26.67;18.50;;;7.60;75.20;;;-142.21;100.00;112049.66;5014313;28;20878;-80
2021/12/20 03:43:56;;;;;;;26.52;17.27;;;7.60;75.10;;;-142.21;100.00;112049.66;5013786;28;20533;-80
2021/12/20 03:46:23;;;;;;;24.37;17.23;;;7.60;75.10;;;-142.21;100.00;112049.66;5013468;28;20737;-80
2021/12/20 03:48:50;;;;;;;24.63;17.35;;;7.60;75.60;;;-142.21;100.00;112049.66;5013557;28;20482;-80
2021/12/20 03:51:18;;;;;;;25.00;16.57;;;7.70;74.50;;;-142.21;100.00;112049.66;5014019;28;20253;-79
2021/12/20 03:53:48;;;;;;;25.40;17.80;;;7.60;74.80;;;-142.21;100.00;112049.66;5013290;28;20447;-77
2021/12/20 03:56:17;;;;;;;25.45;17.83;;;7.50;75.20;;;-142.21;100.00;112049.66;5014152;28;20481;-79
2021/12/20 03:58:44;;;;;;;27.27;17.38;;;7.60;75.10;;;-142.21;100.00;112049.66;4993514;28;20276;-79
2021/12/20 04:01:14;;;;;;;27.48;18.48;;;7.60;74.80;;;-142.21;100.00;112049.66;4997835;28;20238;-79
2021/12/20 04:03:43;;;;;;;28.37;18.80;;;7.50;75.10;;;-142.21;100.00;112049.66;5013938;28;20651;-80
2021/12/20 04:06:14;;;;;;;28.20;17.70;;;7.50;75.00;;;-142.21;100.00;112049.66;5013505;28;20501;-79
2021/12/20 04:08:43;;;;;;;25.07;17.33;;;7.50;74.50;;;-142.21;100.00;112049.66;5013382;28;20196;-79
2021/12/20 04:11:11;;;;;;;25.88;18.20;;;7.50;74.10;;;-142.21;100.00;112049.66;5013227;28;20446;-79
2021/12/20 04:13:40;;;;;;;24.85;17.45;;;7.50;73.80;;;-142.21;100.00;112049.66;5013765;28;20722;-80
2021/12/20 04:16:07;;;;;;;25.67;18.07;;;7.50;73.60;;;-142.21;100.00;112049.66;5013024;28;20345;-78
2021/12/20 04:18:35;;;;;;;25.30;17.70;;;7.50;72.90;;;-142.21;100.00;112049.66;5013265;28;20951;-80
2021/12/20 04:21:03;;;;;;;27.13;17.97;;;7.50;73.50;;;-142.21;100.00;112049.66;5013285;28;20978;-80
2021/12/20 04:23:30;;;;;;;27.02;17.42;;;7.50;75.00;;;-142.21;100.00;112049.66;5013113;28;21133;-79
2021/12/20 04:25:58;;;;;;;25.33;17.38;;;7.40;74.20;;;-142.21;100.00;112049.66;5013174;28;20237;-80
2021/12/20 04:28:25;;;;;;;28.70;18.27;;;7.30;74.50;;;-142.21;100.00;112049.66;5017498;28;20270;-79
2021/12/20 04:30:54;;;;;;;24.60;17.50;;;7.30;74.90;;;-142.21;100.00;112049.66;5006239;28;20485;-80
2021/12/20 04:33:21;;;;;;;25.30;17.67;;;7.40;74.80;;;-142.21;100.00;112049.66;5012965;28;20247;-80
2021/12/20 04:35:49;;;;;;;26.85;18.58;;;7.40;74.70;;;-142.21;100.00;112049.66;5013803;28;20473;-79
2021/12/20 04:38:17;;;;;;;27.65;18.50;;;7.30;74.80;;;-142.21;100.00;112049.66;5012724;28;20297;-79
2021/12/20 04:40:45;;;;;;;26.93;18.40;;;7.40;74.80;;;-142.21;100.00;112049.66;5012864;28;20207;-80
2021/12/20 04:43:12;;;;;;;29.10;19.27;;;7.40;74.70;;;-142.21;100.00;112049.66;5012046;28;20532;-80
2021/12/20 04:45:40;;;;;;;25.75;17.40;;;7.30;74.60;;;-142.21;100.00;112049.66;4993763;28;20498;-80
2021/12/20 04:48:10;;;;;;;26.58;16.98;;;7.30;74.70;;;-142.21;100.00;112049.66;5013944;28;20289;-80
2021/12/20 04:50:38;;;;;;;24.90;17.37;;;7.40;74.90;;;-142.21;100.00;112049.66;5027241;28;20671;-79
2021/12/20 04:53:06;;;;;;;27.40;18.70;;;7.40;74.50;;;-142.21;100.00;112049.66;5012994;28;20875;-79
2021/12/20 04:55:35;;;;;;;28.25;18.08;;;7.30;74.80;;;-142.21;100.00;112049.66;5012248;28;20486;-80
2021/12/20 04:58:05;;;;;;;27.80;19.00;;;7.30;75.00;;;-142.21;100.00;112049.66;5014788;28;20235;-79
2021/12/20 05:00:35;;;;;;;26.37;18.43;;;7.30;75.40;;;-142.21;100.00;112049.66;5011677;28;20443;-80
2021/12/20 05:03:03;;;;;;;28.80;18.50;;;7.30;75.40;;;-142.21;100.00;112049.66;5012887;28;20832;-80
2021/12/20 05:05:32;;;;;;;26.63;18.33;;;7.20;75.30;;;-142.21;100.00;112049.66;5000064;28;20446;-79
2021/12/20 05:08:00;;;;;;;27.75;17.98;;;7.20;75.60;;;-142.21;100.00;112049.66;5032146;28;20293;-80
2021/12/20 05:10:30;;;;;;;24.95;17.08;;;7.20;76.50;;;-142.21;100.00;112049.66;5031743;28;20206;-80
2021/12/20 05:13:02;;;;;;;25.70;17.30;;;7.10;75.80;;;-142.21;100.00;112049.66;5032010;28;20199;-80
2021/12/20 05:15:29;;;;;;;24.47;17.83;;;7.10;75.90;;;-142.21;100.00;112049.66;5027945;28;20198;-80
2021/12/20 05:17:57;;;;;;;28.30;18.33;;;7.10;75.50;;;-142.21;100.00;112049.66;5012693;28;20489;-78
2021/12/20 05:20:26;;;;;;;26.40;18.13;;;7.10;75.60;;;-142.21;100.00;112049.66;5012463;28;20229;-80
2021/12/20 05:22:55;;;;;;;26.15;17.17;;;7.20;75.80;;;-142.21;100.00;112049.66;4975333;28;20494;-80
2021/12/20 05:25:23;;;;;;;23.27;16.65;;;7.20;75.50;;;-142.21;100.00;112049.66;4992804;28;20298;-80
2021/12/20 05:27:52;;;;;;;25.80;17.35;;;7.20;75.60;;;-142.21;100.00;112049.66;4993231;28;20302;-80
2021/12/20 05:30:21;;;;;;;24.88;17.08;;;7.20;75.70;;;-142.21;100.00;112049.66;4992688;28;20215;-80
2021/12/20 05:32:48;;;;;;;25.13;17.70;;;7.20;75.70;;;-142.21;100.00;112049.66;5007195;28;20545;-80
2021/12/20 05:35:19;;;;;;;23.17;16.45;;;7.30;75.30;;;-142.21;100.00;112049.66;5012422;28;20217;-80
2021/12/20 05:37:46;;;;;;;27.55;17.70;;;7.30;75.50;;;-142.21;100.00;112049.66;5012053;28;20195;-80
2021/12/20 05:40:16;;;;;;;23.75;16.45;;;7.20;75.20;;;-142.21;100.00;112049.66;5012507;28;20280;-80
2021/12/20 05:42:45;;;;;;;24.90;17.40;;;7.30;75.80;;;-142.21;100.00;112049.66;5012003;28;20275;-80
2021/12/20 05:45:14;;;;;;;21.42;15.82;;;7.30;75.40;;;-142.21;100.00;112049.66;4975630;28;20200;-80
2021/12/20 05:47:41;;;;;;;24.27;16.85;;;7.40;75.00;;;-142.21;100.00;112049.66;4992519;28;20747;-80
2021/12/20 05:50:11;;;;;;;23.63;16.33;;;7.30;74.70;;;-142.21;100.00;112049.66;4994150;28;21063;-80
2021/12/20 05:52:39;;;;;;;22.92;16.15;;;7.40;75.00;;;-142.21;100.00;112049.66;5014211;28;20477;-79
2021/12/20 05:55:09;;;;;;;24.98;17.35;;;7.30;74.80;;;-142.21;100.00;112049.66;5015542;28;20298;-80
2021/12/20 05:57:38;;;;;;;25.35;17.02;;;7.40;74.90;;;-142.21;100.00;112049.66;5015890;28;20203;-80
2021/12/20 06:00:12;;;;;;;22.57;16.03;;;7.40;74.80;;;-142.21;100.00;112049.66;5015314;28;20675;-80
2021/12/20 06:02:39;;;;;;;21.93;15.57;;;7.30;74.70;;;-142.21;100.00;112049.66;5016173;28;20450;-79
2021/12/20 06:05:08;;;;;;;21.53;14.90;;;7.30;75.10;;;-142.21;100.00;112049.66;4995393;28;20530;-79
2021/12/20 06:07:38;;;;;;;21.07;15.63;;;7.40;75.10;;;-142.21;100.00;112049.66;4996185;28;20526;-80
2021/12/20 06:10:08;;;;;;;24.02;17.35;;;7.40;74.40;;;-142.21;100.00;112049.66;4995556;28;20443;-78
2021/12/20 06:12:37;;;;;;;22.10;16.27;;;7.50;74.40;;;-142.21;100.00;112049.66;4996250;28;20291;-80
2021/12/20 06:15:05;;;;;;;24.63;16.30;;;7.40;74.20;;;-142.21;100.00;112049.66;4996108;28;20455;-80
2021/12/20 06:17:32;;;;;;;23.80;16.23;;;7.40;74.70;;;-142.21;100.00;112049.66;4996669;28;20509;-80
2021/12/20 06:20:00;;;;;;;25.33;17.43;;;7.40;74.50;;;-142.21;100.00;112049.66;4996148;28;20524;-80
2021/12/20 06:22:27;;;;;;;24.83;17.43;;;7.40;74.50;;;-142.21;100.00;112049.66;4995330;28;20486;-79
2021/12/20 06:24:54;;;;;;;25.00;17.23;;;7.40;75.40;;;-142.21;100.00;112049.66;4995760;28;20514;-80
2021/12/20 06:27:21;;;;;;;24.53;17.03;;;7.40;74.50;;;-142.21;100.00;112049.66;4995207;28;20486;-80
2021/12/20 06:29:50;;;;;;;26.47;17.63;;;7.40;75.20;;;-142.21;100.00;112049.66;4996346;28;20447;-80
2021/12/20 06:32:17;;;;;;;21.88;15.70;;;7.30;74.60;;;-142.21;100.00;112049.66;5011348;28;20889;-80
2021/12/20 06:34:44;;;;;;;22.97;16.60;;;7.40;74.70;;;-142.21;100.00;112049.66;5015608;28;20203;-80
2021/12/20 06:37:12;;;;;;;27.67;18.27;;;7.40;74.50;;;-142.21;100.00;112049.66;5017919;28;20504;-80
2021/12/20 06:39:40;;;;;;;25.07;17.17;;;7.40;74.50;;;-142.21;100.00;112049.66;5034558;28;20207;-80
2021/12/20 06:42:08;;;;;;;26.45;17.60;;;7.30;74.70;;;-142.21;100.00;112049.66;5034856;28;20504;-80
2021/12/20 06:44:35;;;;;;;28.40;18.17;;;7.30;74.60;;;-142.21;100.00;112049.66;5032749;28;20254;-80
2021/12/20 06:47:05;;;;;;;25.83;18.47;;;7.30;74.80;;;-142.21;100.00;112049.66;5014983;28;20231;-80
2021/12/20 06:49:32;;;;;;;27.47;16.70;;;7.30;75.00;;;-142.21;100.00;112049.66;5008043;28;20451;-79
2021/12/20 06:52:00;;;;;;;27.17;18.40;;;7.30;74.80;;;-142.21;100.00;112049.66;4978186;28;20533;-80
2021/12/20 06:54:28;;;;;;;23.50;16.73;;;7.40;74.70;;;-142.21;100.00;112049.66;4995327;28;20207;-79
2021/12/20 06:56:55;;;;;;;23.40;16.87;;;7.40;74.30;;;-142.21;100.00;112049.66;4994732;28;20439;-79
2021/12/20 06:59:23;;;;;;;21.88;16.85;;;7.60;74.30;;;-142.21;100.00;112049.66;4995450;28;20544;-79
2021/12/20 07:01:51;;;;;;;25.17;17.67;;;7.60;74.10;;;-142.21;100.00;112049.66;4994915;28;20291;-79
2021/12/20 07:04:19;;;;;;;25.53;17.43;;;7.60;74.00;;;-142.21;100.00;112049.66;5009837;28;20314;-79
2021/12/20 07:06:47;;;;;;;24.33;16.67;;;7.60;73.70;;;-142.21;100.00;112049.66;5001726;28;20494;-79
2021/12/20 07:09:15;;;;;;;23.38;16.02;;;7.50;74.30;;;-142.21;100.00;112049.66;4994518;28;20196;-79
2021/12/20 07:11:43;;;;;;;26.90;17.77;;;7.50;74.50;;;-142.21;100.00;112049.66;5015438;28;20247;-79
2021/12/20 07:14:12;;;;;;;24.87;17.77;;;7.40;74.50;;;-142.21;100.00;112049.66;5013799;28;20203;-79
2021/12/20 07:16:40;;;;;;;24.20;17.30;;;7.40;74.80;;;-142.21;100.00;112049.66;5014851;28;20459;-79
2021/12/20 07:19:08;;;;;;;22.92;17.38;;;7.50;74.90;;;-142.21;100.00;112049.66;5014731;28;20236;-78
2021/12/20 07:21:37;;;;;;;24.30;16.97;;;7.50;74.50;;;-142.21;100.00;112049.66;5016456;28;20207;-79
2021/12/20 07:24:05;;;;;;;25.90;17.80;;;7.60;74.20;;;-142.21;100.00;112049.66;5015453;28;20889;-78
2021/12/20 07:26:32;;;;;;;26.08;18.30;;;7.60;74.20;;;-142.21;100.00;112049.66;4978625;28;20494;-77
2021/12/20 07:29:00;;;;;;;25.63;17.70;;;7.60;73.80;;;-142.21;100.00;112049.66;5011356;28;20207;-78
2021/12/20 07:31:28;;;;;;;29.63;18.73;;;7.70;74.00;;;-142.21;100.00;112049.66;5014157;28;20504;-78
2021/12/20 07:33:55;;;;;;;26.40;18.03;;;7.70;73.90;;;-142.21;100.00;112049.66;5014483;28;20807;-79
2021/12/20 07:36:22;;;;;;;27.03;18.37;;;7.80;73.60;;;-142.21;100.00;112049.66;5013588;28;20958;-78
2021/12/20 07:38:52;;;;;;;25.27;17.70;;;7.70;73.60;;;-142.21;100.00;112049.66;5006239;28;20512;-76
2021/12/20 07:41:22;;;;;;;24.30;17.70;;;7.70;74.00;;;-142.21;100.00;112049.66;5013831;28;20950;-75
2021/12/20 07:43:50;;;;;;;26.80;19.33;;;7.70;73.80;;;-142.21;100.00;112049.66;5013585;28;20536;-78
2021/12/20 07:46:20;;;;;;;24.03;17.00;;;7.80;74.00;;;-142.21;100.00;112049.66;4994325;28;20499;-76
2021/12/20 07:48:48;;;;;;;25.27;18.27;;;7.80;73.80;;;-142.21;100.00;112049.66;4994616;28;20483;-76
2021/12/20 07:51:16;;;;;;;25.83;18.00;;;7.80;73.80;;;-142.21;100.00;112049.66;4994455;28;20462;-79
2021/12/20 07:53:43;;;;;;;28.17;19.37;;;7.80;73.40;;;-142.21;100.00;112049.66;4997562;28;20443;-77
2021/12/20 07:56:13;;;;;;;27.60;18.87;;;7.90;73.50;;;-142.21;100.00;112049.66;5002384;28;20554;-79
2021/12/20 07:58:40;;;;;;;27.70;19.10;;;8.00;73.50;;;-142.21;100.00;112049.66;5013568;28;20476;-77
2021/12/20 08:01:07;;;;;;;27.90;20.03;;;8.00;73.50;;;-142.21;100.00;112049.66;5014177;28;20297;-75
2021/12/20 08:03:35;;;;;;;26.23;17.57;;;8.10;73.30;;;-142.21;100.00;112049.66;5013272;28;20540;-78
2021/12/20 08:06:03;;;;;;;27.10;18.23;;;8.00;73.60;;;-142.21;100.00;112049.66;5014038;28;20541;-77
2021/12/20 08:08:30;;;;;;;25.67;16.77;;;8.10;73.00;;;-142.21;100.00;112049.66;5013223;28;20450;-77
2021/12/20 08:10:58;;;;;;;27.83;19.77;;;8.10;73.30;;;-142.21;100.00;112049.66;5013772;28;20450;-77
2021/12/20 08:13:26;;;;;;;26.93;18.53;;;8.00;73.30;;;-142.21;100.00;112049.66;5013909;28;20456;-77
2021/12/20 08:15:54;;;;;;;25.53;18.43;;;8.10;73.30;;;-142.21;100.00;112049.66;5012457;28;20533;-77
2021/12/20 08:18:21;;;;;;;25.73;18.50;;;8.10;73.20;;;-142.21;100.00;112049.66;4980280;28;20989;-75
2021/12/20 08:20:49;;;;;;;23.63;17.93;;;8.10;72.90;;;-142.21;100.00;112049.66;5013600;28;20468;-76
2021/12/20 08:23:16;;;;;;;27.43;19.40;;;8.20;72.40;;;-142.21;100.00;112049.66;5013830;28;20541;-78
2021/12/20 08:25:44;;;;;;;23.03;17.40;;;8.20;72.40;;;-142.21;100.00;112049.66;5019343;28;20852;-77
2021/12/20 08:28:11;;;;;;;24.03;17.87;;;8.20;72.40;;;-142.21;100.00;112049.66;5033069;28;20445;-76
2021/12/20 08:30:40;;;;;;;29.90;19.93;;;8.20;72.30;;;-142.21;100.00;112049.66;5027739;28;20517;-76
2021/12/20 08:33:07;;;;;;;24.33;17.37;;;8.20;72.20;;;-142.21;100.00;112049.66;5013458;28;20454;-76
2021/12/20 08:35:35;;;;;;;23.90;17.20;;;8.10;71.90;;;-142.21;100.00;112049.66;5013597;28;20817;-77
2021/12/20 08:38:03;;;;;;;22.27;16.80;;;8.20;72.10;;;-142.21;100.00;112049.66;5012762;28;21066;-76
2021/12/20 08:40:30;;;;;;;24.17;17.30;;;8.20;71.60;;;-142.21;100.00;112049.66;5013504;28;20451;-76
2021/12/20 08:42:58;;;;;;;25.80;18.40;;;8.20;70.10;;;-142.21;100.00;112049.66;5013180;28;20505;-77
2021/12/20 08:45:26;;;;;;;24.67;17.88;;;8.20;71.20;;;-142.21;100.00;112049.66;5013042;28;20525;-74
2021/12/20 08:47:57;;;;;;;26.93;17.70;;;8.20;71.60;;;-142.21;100.00;112049.66;5012906;28;20207;-76
2021/12/20 08:50:25;;;;;;;23.42;18.35;;;8.20;71.70;;;-142.21;100.00;112049.66;5012533;28;20430;-77
2021/12/20 08:52:53;;;;;;;23.80;17.47;;;8.20;71.90;;;-142.21;100.00;112049.66;5013229;28;20211;-76
2021/12/20 08:55:21;;;;;;;26.67;19.10;;;8.40;71.90;;;-142.21;100.00;112049.66;5012018;28;20537;-76
2021/12/20 08:57:49;;;;;;;25.33;18.73;;;8.40;71.90;;;-142.21;100.00;112049.66;5000824;28;20199;-75
2021/12/20 09:00:23;;;;;;;25.80;18.97;;;8.50;72.00;;;-142.21;100.00;112049.66;5003917;28;20207;-77
2021/12/20 09:02:51;;;;;;;22.90;17.47;;;8.50;72.00;;;-142.21;100.00;112049.66;4993769;28;20538;-77
2021/12/20 09:05:22;;;;;;;25.37;19.67;;;8.60;72.10;;;-142.21;100.00;112049.66;4996659;28;21032;-73
2021/12/20 09:07:50;;;;;;;25.40;18.17;;;8.60;71.50;;;-142.21;100.00;112049.66;5013633;28;20442;-76
2021/12/20 09:10:19;;;;;;;25.90;19.23;;;8.70;71.20;;;-142.21;100.00;112049.66;5013011;28;20453;-78
2021/12/20 09:12:46;;;;;;;22.63;17.13;;;8.70;71.10;;;-142.21;100.00;112049.66;5012675;28;20481;-76
2021/12/20 09:15:17;;;;;;;26.23;19.43;;;8.70;70.70;;;-142.21;100.00;112049.66;5013075;28;20527;-76
2021/12/20 09:17:47;;;;;;;24.53;18.33;;;8.80;71.00;;;-142.21;100.00;112049.66;5012637;28;20442;-75
2021/12/20 09:20:17;;;;;;;23.37;17.47;;;8.80;71.10;;;-142.21;100.00;112049.66;5020362;28;20532;-74
2021/12/20 09:22:53;;;;;;;24.07;18.60;;;8.90;71.20;;;-142.21;100.00;112049.66;5031756;28;20442;-77
2021/12/20 09:25:22;;;;;;;26.13;19.67;;;8.90;71.00;;;-142.21;100.00;112049.66;5032855;28;20477;-77
2021/12/20 09:27:51;;;;;;;24.13;18.60;;;9.00;70.80;;;-142.21;100.00;112049.66;5028667;28;20500;-77
2021/12/20 09:30:20;;;;;;;28.37;19.17;;;9.00;70.70;;;-142.21;100.00;112049.66;5018772;28;20487;-77
2021/12/20 09:32:48;;;;;;;21.30;17.20;;;9.00;70.80;;;-142.21;100.00;112049.66;5036148;28;20478;-76
2021/12/20 09:35:17;;;;;;;26.17;18.07;;;9.10;70.90;;;-142.21;100.00;112049.66;5019465;28;20442;-75
2021/12/20 09:37:50;;;;;;;23.07;17.83;;;9.10;70.90;;;-142.21;100.00;112049.66;5016111;28;20453;-75
2021/12/20 09:40:30;;;;;;;26.70;19.13;;;9.10;70.80;;;-142.21;100.00;112049.66;5017098;28;20756;-77
2021/12/20 09:43:05;;;;;;;26.00;18.23;;;9.10;71.00;;;-142.21;100.00;112049.66;5015585;28;20477;-74
2021/12/20 09:45:38;;;;;;;27.43;18.97;;;9.20;70.80;;;-142.21;100.00;112049.66;5016487;28;20512;-74
2021/12/20 09:48:05;;;;;;;26.00;18.50;;;9.10;70.70;;;-142.21;100.00;112049.66;5013495;28;20515;-77
2021/12/20 09:50:34;;;;;;;24.50;17.73;;;9.10;70.60;;;-142.21;100.00;112049.66;5016452;28;20485;-77
2021/12/20 09:53:07;;;;;;;25.00;18.57;;;9.00;70.70;;;-142.21;100.00;112049.66;5015621;28;20446;-77
2021/12/20 09:55:36;;;;;;;25.23;18.57;;;9.00;70.50;;;-142.21;100.00;112049.66;5016420;28;20434;-78
2021/12/20 09:58:05;;;;;;;25.63;18.83;;;9.00;70.80;;;-142.21;100.00;112049.66;5015586;28;20442;-77
2021/12/20 10:00:35;;;;;;;24.47;17.90;;;9.10;70.50;;;-142.21;100.00;112049.66;5016700;28;20474;-74
2021/12/20 10:03:03;;;;;;;26.37;18.90;;;9.20;70.30;;;-142.21;100.00;112049.66;5015548;28;20473;-75